createdAt,value
2018-05-15T00:00:32.722Z,4.30
2018-05-15T00:01:32.709Z,4.90
2018-05-15T00:02:32.702Z,4.40
2018-05-15T00:03:32.695Z,5.00
2018-05-15T00:04:32.683Z,4.40
2018-05-15T00:05:32.674Z,4.00
2018-05-15T00:06:32.663Z,5.60
2018-05-15T00:07:32.651Z,4.80
2018-05-15T00:08:32.648Z,4.00
2018-05-15T00:09:32.638Z,4.40
2018-05-15T00:10:32.624Z,3.50
2018-05-15T00:11:32.613Z,3.90
2018-05-15T00:12:32.605Z,3.90
2018-05-15T00:13:32.597Z,5.30
2018-05-15T00:14:32.585Z,4.70
2018-05-15T00:15:32.579Z,3.70
2018-05-15T00:16:32.569Z,4.40
2018-05-15T00:17:32.557Z,4.10
2018-05-15T00:18:32.550Z,3.40
2018-05-15T00:19:32.535Z,3.50
2018-05-15T00:20:32.530Z,8.00
2018-05-15T00:21:32.528Z,3.60
2018-05-15T00:22:32.511Z,3.40
2018-05-15T00:23:32.500Z,5.40
2018-05-15T00:24:32.494Z,3.30
2018-05-15T00:25:32.481Z,4.50
2018-05-15T00:26:32.471Z,3.00
2018-05-15T00:27:32.461Z,2.40
2018-05-15T00:28:32.454Z,2.70
2018-05-15T00:29:32.442Z,3.50
2018-05-15T00:30:32.434Z,3.10
2018-05-15T00:31:32.423Z,2.70
2018-05-15T00:32:32.419Z,3.50
2018-05-15T00:33:32.406Z,3.90
2018-05-15T00:34:32.394Z,3.10
2018-05-15T00:35:32.384Z,7.00
2018-05-15T00:36:32.374Z,3.90
2018-05-15T00:37:32.363Z,4.20
2018-05-15T00:38:32.357Z,3.80
2018-05-15T00:39:32.345Z,3.90
2018-05-15T00:40:32.337Z,4.40
2018-05-15T00:41:32.326Z,4.10
2018-05-15T00:42:32.319Z,3.70
2018-05-15T00:43:32.309Z,2.80
2018-05-15T00:44:32.301Z,2.50
2018-05-15T00:45:32.287Z,3.20
2018-05-15T00:46:32.279Z,2.50
2018-05-15T00:47:32.267Z,3.30
2018-05-15T00:48:32.258Z,2.00
2018-05-15T00:49:32.253Z,2.60
2018-05-15T00:50:32.240Z,2.10
2018-05-15T00:51:32.229Z,2.30
2018-05-15T00:52:32.218Z,3.30
2018-05-15T00:53:32.212Z,2.40
2018-05-15T00:54:32.212Z,2.00
2018-05-15T00:55:32.191Z,2.00
2018-05-15T00:56:32.183Z,3.20
2018-05-15T00:57:32.169Z,2.20
2018-05-15T00:58:32.159Z,2.30
2018-05-15T00:59:32.149Z,2.10
2018-05-15T01:00:32.144Z,2.60
2018-05-15T01:01:32.131Z,2.30
2018-05-15T01:02:32.123Z,4.00
2018-05-15T01:03:32.117Z,2.00
2018-05-15T01:05:32.082Z,1.70
2018-05-15T01:06:32.073Z,3.40
2018-05-15T01:07:32.062Z,2.50
2018-05-15T01:08:32.052Z,2.20
2018-05-15T01:09:32.049Z,2.00
2018-05-15T01:10:32.039Z,2.20
2018-05-15T01:11:32.028Z,2.50
2018-05-15T01:12:32.017Z,1.80
2018-05-15T01:13:32.002Z,3.50
2018-05-15T01:14:32.002Z,1.70
2018-05-15T01:15:31.988Z,3.80
2018-05-15T01:16:31.979Z,2.20
2018-05-15T01:17:31.965Z,2.00
2018-05-15T01:18:31.957Z,1.80
2018-05-15T01:19:31.946Z,1.70
2018-05-15T01:20:31.936Z,1.60
2018-05-15T01:21:31.927Z,3.00
2018-05-15T01:22:31.921Z,1.70
2018-05-15T01:23:31.910Z,1.60
2018-05-15T01:24:31.906Z,2.20
2018-05-15T01:25:31.889Z,2.30
2018-05-15T01:26:31.876Z,2.50
2018-05-15T01:27:31.867Z,2.20
2018-05-15T01:28:31.855Z,1.80
2018-05-15T01:29:31.850Z,1.60
2018-05-15T01:30:31.836Z,3.30
2018-05-15T01:31:31.826Z,2.40
2018-05-15T01:32:31.820Z,2.10
2018-05-15T01:33:31.807Z,3.30
2018-05-15T01:34:31.800Z,3.00
2018-05-15T01:35:31.804Z,2.10
2018-05-15T01:36:31.778Z,1.60
2018-05-15T01:37:31.771Z,1.70
2018-05-15T01:38:31.756Z,1.80
2018-05-15T01:39:31.752Z,2.90
2018-05-15T01:40:31.794Z,4.10
2018-05-15T01:41:31.731Z,3.60
2018-05-15T01:42:31.716Z,1.80
2018-05-15T01:43:31.708Z,1.90
2018-05-15T01:44:31.697Z,1.70
2018-05-15T01:45:31.692Z,5.60
2018-05-15T01:46:31.685Z,1.70
2018-05-15T01:47:31.673Z,2.60
2018-05-15T01:48:31.658Z,2.70
2018-05-15T01:49:31.647Z,1.40
2018-05-15T01:50:31.856Z,1.60
2018-05-15T01:51:31.632Z,1.50
2018-05-15T01:52:31.618Z,2.50
2018-05-15T01:53:31.662Z,3.40
2018-05-15T01:54:31.596Z,2.00
2018-05-15T01:55:31.592Z,1.50
2018-05-15T01:56:31.579Z,1.50
2018-05-15T01:57:31.567Z,1.60
2018-05-15T01:58:31.558Z,2.20
2018-05-15T01:59:31.545Z,2.20
2018-05-15T02:00:31.537Z,2.40
2018-05-15T02:01:31.532Z,2.00
2018-05-15T02:02:31.529Z,3.00
2018-05-15T02:03:31.511Z,2.10
2018-05-15T02:04:31.504Z,2.60
2018-05-15T02:05:31.489Z,2.10
2018-05-15T02:06:31.480Z,2.10
2018-05-15T02:07:31.466Z,1.80
2018-05-15T02:08:31.463Z,1.60
2018-05-15T02:09:31.454Z,2.00
2018-05-15T02:10:31.442Z,2.20
2018-05-15T02:11:31.425Z,1.80
2018-05-15T02:12:31.416Z,2.00
2018-05-15T02:13:31.407Z,2.30
2018-05-15T02:14:31.407Z,1.80
2018-05-15T02:15:31.385Z,2.30
2018-05-15T02:16:31.378Z,2.50
2018-05-15T02:17:31.371Z,2.70
2018-05-15T02:18:31.358Z,2.80
2018-05-15T02:19:31.347Z,3.20
2018-05-15T02:20:31.343Z,2.70
2018-05-15T02:21:31.330Z,2.00
2018-05-15T02:22:31.323Z,2.90
2018-05-15T02:23:31.312Z,4.10
2018-05-15T02:24:31.298Z,1.90
2018-05-15T02:25:31.287Z,2.90
2018-05-15T02:26:31.276Z,3.10
2018-05-15T02:27:31.268Z,2.10
2018-05-15T02:28:31.260Z,3.10
2018-05-15T02:29:31.248Z,2.80
2018-05-15T02:30:31.291Z,3.30
2018-05-15T02:31:31.230Z,2.30
2018-05-15T02:32:31.219Z,2.60
2018-05-15T02:33:31.215Z,2.40
2018-05-15T02:34:31.200Z,1.90
2018-05-15T02:35:31.191Z,3.00
2018-05-15T02:36:31.191Z,2.70
2018-05-15T02:37:31.187Z,1.90
2018-05-15T02:38:31.159Z,2.20
2018-05-15T02:39:31.153Z,3.60
2018-05-15T02:40:31.149Z,4.40
2018-05-15T02:41:31.137Z,2.20
2018-05-15T02:42:31.123Z,2.80
2018-05-15T02:43:31.109Z,1.60
2018-05-15T02:44:31.104Z,2.10
2018-05-15T02:45:31.099Z,2.40
2018-05-15T02:46:31.081Z,3.90
2018-05-15T02:47:31.069Z,2.00
2018-05-15T02:48:31.068Z,2.20
2018-05-15T02:49:31.053Z,2.30
2018-05-15T02:50:31.042Z,4.40
2018-05-15T02:51:31.031Z,2.00
2018-05-15T02:52:31.025Z,3.10
2018-05-15T02:53:31.015Z,2.50
2018-05-15T02:54:31.005Z,2.50
2018-05-15T02:55:31.000Z,4.80
2018-05-15T02:56:30.995Z,2.40
2018-05-15T02:57:30.980Z,2.80
2018-05-15T02:58:30.968Z,2.30
2018-05-15T02:59:30.956Z,2.60
2018-05-15T03:00:30.946Z,3.50
2018-05-15T03:01:30.934Z,2.60
2018-05-15T03:02:30.921Z,2.50
2018-05-15T03:03:30.918Z,2.80
2018-05-15T03:04:30.907Z,2.30
2018-05-15T04:50:30.308Z,3.90
2018-05-15T04:51:30.234Z,3.70
2018-05-15T04:52:30.226Z,3.50
2018-05-15T04:53:30.221Z,4.50
2018-05-15T04:54:30.215Z,4.70
2018-05-15T04:55:30.208Z,4.30
2018-05-15T04:56:30.195Z,4.90
2018-05-15T04:57:30.177Z,4.80
2018-05-15T04:58:30.193Z,4.50
2018-05-15T04:59:30.167Z,5.70
2018-05-15T05:03:01.460Z,4.50
2018-05-15T05:04:00.841Z,5.00
2018-05-15T05:05:00.841Z,4.10
2018-05-15T05:06:00.834Z,4.60
2018-05-15T05:07:00.814Z,4.00
2018-05-15T05:08:00.805Z,3.30
2018-05-15T05:09:00.798Z,4.40
2018-05-15T05:10:00.786Z,3.80
2018-05-15T05:11:00.781Z,3.70
2018-05-15T05:12:00.770Z,3.60
2018-05-15T05:13:00.758Z,4.50
2018-05-15T05:14:00.754Z,3.20
2018-05-15T05:15:00.747Z,3.40
2018-05-15T05:16:00.729Z,3.90
2018-05-15T05:17:00.764Z,3.40
2018-05-15T05:18:00.790Z,3.40
2018-05-15T05:19:00.701Z,3.10
2018-05-15T05:20:00.700Z,3.20
2018-05-15T05:21:00.736Z,2.70
2018-05-15T05:22:00.677Z,5.10
2018-05-15T05:23:00.663Z,5.10
2018-05-15T05:24:00.655Z,4.40
2018-05-15T05:25:00.648Z,2.80
2018-05-15T05:26:00.648Z,4.20
2018-05-15T05:27:00.629Z,3.80
2018-05-15T05:28:00.618Z,4.60
2018-05-15T05:29:00.606Z,2.90
2018-05-15T05:30:53.040Z,4.00
2018-05-15T05:31:53.085Z,3.30
2018-05-15T05:32:53.030Z,3.90
2018-05-15T05:33:53.018Z,2.80
2018-05-15T05:34:52.994Z,3.60
2018-05-15T05:35:52.986Z,2.70
2018-05-15T05:36:52.983Z,4.00
2018-05-15T05:37:52.966Z,3.20
2018-05-15T05:38:52.967Z,3.20
2018-05-15T05:39:52.953Z,3.30
2018-05-15T05:40:52.945Z,4.40
2018-05-15T05:41:52.940Z,3.40
2018-05-15T05:42:52.937Z,3.20
2018-05-15T05:43:52.923Z,4.50
2018-05-15T05:44:52.912Z,3.40
2018-05-15T05:45:52.908Z,4.10
2018-05-15T05:46:52.902Z,5.40
2018-05-15T05:47:52.895Z,8.70
2018-05-15T05:48:52.886Z,2.70
2018-05-15T05:49:52.887Z,3.10
2018-05-15T05:50:52.880Z,3.00
2018-05-15T05:51:52.910Z,3.80
2018-05-15T05:52:52.858Z,4.50
2018-05-15T05:53:52.852Z,3.90
2018-05-15T05:54:52.839Z,4.60
2018-05-15T05:55:52.826Z,4.30
2018-05-15T05:56:52.817Z,3.50
2018-05-15T05:57:52.807Z,3.50
2018-05-15T05:58:52.807Z,6.20
2018-05-15T05:59:52.797Z,5.00
2018-05-15T06:00:52.786Z,6.80
2018-05-15T06:01:52.774Z,6.10
2018-05-15T06:02:52.773Z,4.10
2018-05-15T06:03:52.762Z,4.60
2018-05-15T06:04:52.744Z,4.00
2018-05-15T06:05:52.737Z,3.50
2018-05-15T06:06:52.731Z,3.20
2018-05-15T06:07:52.717Z,4.70
2018-05-15T06:08:52.707Z,3.20
2018-05-15T06:09:52.701Z,6.10
2018-05-15T06:10:52.699Z,5.70
2018-05-15T06:11:52.683Z,4.80
2018-05-15T06:12:52.679Z,4.10
2018-05-15T06:13:52.664Z,6.90
2018-05-15T06:14:52.652Z,7.10
2018-05-15T06:15:52.646Z,11.90
2018-05-15T06:16:52.633Z,5.10
2018-05-15T06:17:52.623Z,4.20
2018-05-15T06:18:52.617Z,4.30
2018-05-15T06:19:52.612Z,7.90
2018-05-15T06:20:52.602Z,4.50
2018-05-15T06:21:52.589Z,5.10
2018-05-15T06:22:52.582Z,5.20
2018-05-15T06:23:52.570Z,4.00
2018-05-15T06:24:52.562Z,4.50
2018-05-15T06:25:52.550Z,6.00
2018-05-15T06:26:52.544Z,3.40
2018-05-15T06:27:52.529Z,3.20
2018-05-15T06:28:52.524Z,3.00
2018-05-15T06:29:52.517Z,3.90
2018-05-15T06:30:52.518Z,3.40
2018-05-15T06:31:52.495Z,5.20
2018-05-15T06:32:52.482Z,3.40
2018-05-15T06:33:52.473Z,4.20
2018-05-15T06:34:52.465Z,3.80
2018-05-15T06:35:52.456Z,3.80
2018-05-15T06:36:52.447Z,3.90
2018-05-15T06:37:52.444Z,4.10
2018-05-15T06:38:52.429Z,3.20
2018-05-15T06:39:52.424Z,3.80
2018-05-15T06:40:52.413Z,3.30
2018-05-15T06:41:52.396Z,3.30
2018-05-15T06:42:52.393Z,3.50
2018-05-15T06:43:52.382Z,4.00
2018-05-15T06:44:52.487Z,5.60
2018-05-15T06:45:52.361Z,8.20
2018-05-15T06:46:52.353Z,5.70
2018-05-15T06:47:52.347Z,4.90
2018-05-15T06:48:52.335Z,7.20
2018-05-15T06:49:52.321Z,5.40
2018-05-15T06:50:52.318Z,6.30
2018-05-15T06:51:52.304Z,4.40
2018-05-15T06:52:52.294Z,5.10
2018-05-15T06:53:52.286Z,3.40
2018-05-15T06:54:52.281Z,3.40
2018-05-15T06:55:52.275Z,6.10
2018-05-15T06:56:52.264Z,4.60
2018-05-15T06:57:52.248Z,6.60
2018-05-15T06:58:52.241Z,7.30
2018-05-15T06:59:52.232Z,6.60
2018-05-15T07:00:52.227Z,11.20
2018-05-15T07:01:52.226Z,7.80
2018-05-15T07:02:52.203Z,7.70
2018-05-15T07:03:52.195Z,8.70
2018-05-15T07:04:52.185Z,8.00
2018-05-15T07:05:52.180Z,5.10
2018-05-15T07:06:52.170Z,8.00
2018-05-15T07:07:52.168Z,7.00
2018-05-15T07:08:52.157Z,7.70
2018-05-15T07:09:52.145Z,5.50
2018-05-15T07:10:52.136Z,5.60
2018-05-15T07:11:52.128Z,6.60
2018-05-15T07:12:52.117Z,9.80
2018-05-15T07:13:52.105Z,8.50
2018-05-15T07:14:52.105Z,5.00
2018-05-15T07:15:52.096Z,6.60
2018-05-15T07:16:52.078Z,6.80
2018-05-15T07:17:52.073Z,5.60
2018-05-15T07:18:52.060Z,6.10
2018-05-15T07:19:52.053Z,5.60
2018-05-15T07:20:52.050Z,5.60
2018-05-15T07:21:52.034Z,6.40
2018-05-15T07:22:52.030Z,4.80
2018-05-15T07:23:52.018Z,5.90
2018-05-15T07:24:52.005Z,6.20
2018-05-15T07:25:52.004Z,8.20
2018-05-15T07:26:51.992Z,5.40
2018-05-15T07:27:51.986Z,6.10
2018-05-15T07:28:51.974Z,6.10
2018-05-15T07:29:51.969Z,5.00
2018-05-15T07:30:51.951Z,4.90
2018-05-15T07:31:51.950Z,6.50
2018-05-15T07:32:51.943Z,5.90
2018-05-15T07:33:51.925Z,4.60
2018-05-15T07:34:51.916Z,4.20
2018-05-15T07:35:51.912Z,5.60
2018-05-15T07:36:51.899Z,5.30
2018-05-15T07:37:51.889Z,6.10
2018-05-15T07:38:51.883Z,5.50
2018-05-15T07:39:51.871Z,6.80
2018-05-15T07:40:51.864Z,6.50
2018-05-15T07:41:51.855Z,5.80
2018-05-15T07:42:51.849Z,5.60
2018-05-15T07:43:51.837Z,7.20
2018-05-15T07:44:51.830Z,4.60
2018-05-15T07:45:51.820Z,5.00
2018-05-15T07:46:51.812Z,6.00
2018-05-15T07:47:51.800Z,5.60
2018-05-15T07:48:51.796Z,9.00
2018-05-15T07:49:51.782Z,8.50
2018-05-15T07:50:51.778Z,6.70
2018-05-15T07:51:51.767Z,5.80
2018-05-15T07:52:51.759Z,5.20
2018-05-15T07:53:51.747Z,4.70
2018-05-15T07:54:51.738Z,5.70
2018-05-15T07:55:51.739Z,6.40
2018-05-15T07:56:51.723Z,5.40
2018-05-15T07:57:51.713Z,7.00
2018-05-15T07:58:51.703Z,4.10
2018-05-15T07:59:51.693Z,4.90
2018-05-15T08:00:51.686Z,4.90
2018-05-15T08:01:51.676Z,6.40
2018-05-15T08:02:51.665Z,5.90
2018-05-15T08:03:51.658Z,6.40
2018-05-15T08:04:51.655Z,4.40
2018-05-15T08:05:51.640Z,5.10
2018-05-15T08:06:51.629Z,7.70
2018-05-15T08:07:51.622Z,6.20
2018-05-15T08:08:51.615Z,7.00
2018-05-15T08:09:51.602Z,7.00
2018-05-15T08:10:51.600Z,6.50
2018-05-15T08:11:51.584Z,5.20
2018-05-15T08:12:51.576Z,5.60
2018-05-15T08:13:51.567Z,4.50
2018-05-15T08:14:51.558Z,4.90
2018-05-15T08:15:51.554Z,6.20
2018-05-15T08:16:51.540Z,5.30
2018-05-15T08:17:51.536Z,3.90
2018-05-15T08:18:51.522Z,5.80
2018-05-15T08:19:51.520Z,5.10
2018-05-15T08:20:51.504Z,5.10
2018-05-15T08:21:51.498Z,4.90
2018-05-15T08:22:51.495Z,6.80
2018-05-15T08:23:51.485Z,5.20
2018-05-15T08:24:51.476Z,4.60
2018-05-15T08:25:51.467Z,4.40
2018-05-15T08:26:51.454Z,5.00
2018-05-15T08:27:51.446Z,6.60
2018-05-15T08:28:51.443Z,5.00
2018-05-15T08:29:51.435Z,5.60
2018-05-15T08:30:51.440Z,3.90
2018-05-15T08:31:51.411Z,6.10
2018-05-15T08:32:51.404Z,4.00
2018-05-15T08:33:51.394Z,3.70
2018-05-15T08:34:51.392Z,4.70
2018-05-15T08:35:51.379Z,4.30
2018-05-15T08:36:51.367Z,4.50
2018-05-15T08:37:51.360Z,5.30
2018-05-15T08:38:51.353Z,6.10
2018-05-15T08:39:51.349Z,4.10
2018-05-15T08:40:51.337Z,4.70
2018-05-15T08:41:51.325Z,3.70
2018-05-15T08:42:51.322Z,5.00
2018-05-15T08:43:51.309Z,5.30
2018-05-15T08:44:51.306Z,5.30
2018-05-15T08:45:51.293Z,5.00
2018-05-15T08:46:51.288Z,5.10
2018-05-15T08:47:51.280Z,8.50
2018-05-15T08:48:51.266Z,5.50
2018-05-15T08:49:51.262Z,3.60
2018-05-15T08:50:51.250Z,6.00
2018-05-15T08:51:51.242Z,5.60
2018-05-15T08:52:51.233Z,4.60
2018-05-15T08:53:51.230Z,4.60
2018-05-15T08:54:51.220Z,5.20
2018-05-15T08:55:51.209Z,6.60
2018-05-15T08:56:51.207Z,8.70
2018-05-15T08:57:51.195Z,5.10
2018-05-15T08:58:51.185Z,6.10
2018-05-15T08:59:51.176Z,5.90
2018-05-15T09:00:51.175Z,3.20
2018-05-15T09:01:51.166Z,4.40
2018-05-15T09:02:51.149Z,7.90
2018-05-15T09:03:51.146Z,5.40
2018-05-15T09:04:51.138Z,4.40
2018-05-15T09:05:51.134Z,7.30
2018-05-15T09:06:51.124Z,6.40
2018-05-15T09:07:51.110Z,6.90
2018-05-15T09:08:51.107Z,5.00
2018-05-15T09:09:51.097Z,8.90
2018-05-15T09:10:51.098Z,6.20
2018-05-15T09:11:51.085Z,7.20
2018-05-15T09:12:51.075Z,6.00
2018-05-15T09:13:51.065Z,7.00
2018-05-15T09:14:51.062Z,4.70
2018-05-15T09:15:51.052Z,6.90
2018-05-15T09:16:51.039Z,4.40
2018-05-15T09:17:51.039Z,5.90
2018-05-15T09:18:51.030Z,5.50
2018-05-15T09:19:51.018Z,5.40
2018-05-15T09:20:51.009Z,4.10
2018-05-15T09:21:51.000Z,4.40
2018-05-15T09:22:50.994Z,8.20
2018-05-15T09:23:50.985Z,9.90
2018-05-15T09:24:50.985Z,6.30
2018-05-15T09:25:50.976Z,6.10
2018-05-15T09:26:50.965Z,6.60
2018-05-15T09:27:50.958Z,6.00
2018-05-15T09:28:50.954Z,4.50
2018-05-15T09:29:50.947Z,8.40
2018-05-15T09:30:50.937Z,6.20
2018-05-15T09:31:50.929Z,5.30
2018-05-15T09:32:50.922Z,6.70
2018-05-15T09:33:50.920Z,6.10
2018-05-15T09:34:50.908Z,6.60
2018-05-15T09:35:50.904Z,6.70
2018-05-15T09:36:50.893Z,5.80
2018-05-15T09:37:50.899Z,6.20
2018-05-15T09:38:50.878Z,6.90
2018-05-15T09:39:50.875Z,7.40
2018-05-15T09:40:50.874Z,7.70
2018-05-15T09:41:50.861Z,8.40
2018-05-15T09:42:50.853Z,8.90
2018-05-15T09:43:50.844Z,7.40
2018-05-15T09:44:50.841Z,11.20
2018-05-15T09:45:50.837Z,8.80
2018-05-15T09:46:50.909Z,7.30
2018-05-15T09:47:50.817Z,8.00
2018-05-15T09:48:50.810Z,8.80
2018-05-15T09:49:50.809Z,8.70
2018-05-15T09:50:50.794Z,9.90
2018-05-15T09:51:50.786Z,8.70
2018-05-15T09:52:50.786Z,6.90
2018-05-15T09:53:50.775Z,6.40
2018-05-15T09:54:50.768Z,7.30
2018-05-15T09:55:50.761Z,5.50
2018-05-15T09:56:50.754Z,6.00
2018-05-15T09:57:50.745Z,9.30
2018-05-15T09:58:50.749Z,5.90
2018-05-15T09:59:50.734Z,8.30
2018-05-15T10:00:50.723Z,5.90
2018-05-15T10:01:50.720Z,7.10
2018-05-15T10:02:50.708Z,5.20
2018-05-15T10:03:50.702Z,5.50
2018-05-15T10:04:50.696Z,5.30
2018-05-15T10:05:50.687Z,5.10
2018-05-15T10:06:50.680Z,7.60
2018-05-15T10:07:50.689Z,7.10
2018-05-15T10:08:50.670Z,7.10
2018-05-15T10:09:50.658Z,8.10
2018-05-15T10:10:50.655Z,8.70
2018-05-15T10:11:50.653Z,7.20
2018-05-15T10:12:50.639Z,7.20
2018-05-15T10:13:50.631Z,8.10
2018-05-15T10:14:50.626Z,8.00
2018-05-15T10:15:50.620Z,8.20
2018-05-15T10:16:50.613Z,9.50
2018-05-15T10:17:50.608Z,8.00
2018-05-15T10:18:50.593Z,10.30
2018-05-15T10:19:50.646Z,8.80
2018-05-15T10:20:50.578Z,7.20
2018-05-15T10:21:50.576Z,8.40
2018-05-15T10:22:50.563Z,9.00
2018-05-15T10:23:50.555Z,7.70
2018-05-15T10:24:50.548Z,7.20
2018-05-15T10:25:50.543Z,6.80
2018-05-15T10:26:50.533Z,9.70
2018-05-15T10:27:50.523Z,6.70
2018-05-15T10:28:50.520Z,7.20
2018-05-15T10:29:50.516Z,6.50
2018-05-15T10:30:50.501Z,6.30
2018-05-15T10:31:50.492Z,7.90
2018-05-15T10:32:50.486Z,7.90
2018-05-15T10:33:50.481Z,6.00
2018-05-15T10:34:50.469Z,9.10
2018-05-15T10:35:50.463Z,6.10
2018-05-15T10:36:50.453Z,5.70
2018-05-15T10:37:50.449Z,7.00
2018-05-15T10:38:50.438Z,6.90
2018-05-15T10:39:50.433Z,7.20
2018-05-15T10:40:50.428Z,7.40
2018-05-15T10:41:50.412Z,7.40
2018-05-15T10:42:50.405Z,6.70
2018-05-15T10:43:50.478Z,7.40
2018-05-15T10:44:50.393Z,6.30
2018-05-15T10:45:50.385Z,7.20
2018-05-15T10:46:50.373Z,8.30
2018-05-15T10:47:50.365Z,6.20
2018-05-15T10:48:50.356Z,6.50
2018-05-15T10:49:50.353Z,5.70
2018-05-15T10:50:50.364Z,7.20
2018-05-15T10:51:50.333Z,6.70
2018-05-15T10:52:50.324Z,9.90
2018-05-15T10:53:50.321Z,8.70
2018-05-15T10:54:50.308Z,8.80
2018-05-15T10:55:50.301Z,7.30
2018-05-15T10:56:50.292Z,8.80
2018-05-15T10:57:50.278Z,9.00
2018-05-15T10:58:50.276Z,8.70
2018-05-15T10:59:50.266Z,8.20
2018-05-15T11:00:50.253Z,10.80
2018-05-15T11:01:50.246Z,10.50
2018-05-15T11:02:50.241Z,11.20
2018-05-15T11:03:50.228Z,12.00
2018-05-15T11:04:50.221Z,10.60
2018-05-15T11:05:50.213Z,9.30
2018-05-15T11:06:50.213Z,11.90
2018-05-15T11:07:50.195Z,12.00
2018-05-15T11:08:50.189Z,8.90
2018-05-15T11:09:50.175Z,8.80
2018-05-15T11:10:50.175Z,7.30
2018-05-15T11:11:50.176Z,10.50
2018-05-15T11:12:50.186Z,10.60
2018-05-15T11:13:50.141Z,9.70
2018-05-15T11:14:50.139Z,8.70
2018-05-15T11:15:50.126Z,8.40
2018-05-15T11:16:50.115Z,7.60
2018-05-15T11:17:50.105Z,6.80
2018-05-15T11:18:50.098Z,9.60
2018-05-15T11:19:50.095Z,10.10
2018-05-15T11:20:50.092Z,9.70
2018-05-15T11:21:50.080Z,10.30
2018-05-15T11:22:50.069Z,11.10
2018-05-15T11:23:50.058Z,9.20
2018-05-15T11:24:50.044Z,11.60
2018-05-15T11:25:50.032Z,8.70
2018-05-15T11:26:50.026Z,10.70
2018-05-15T11:27:50.016Z,9.80
2018-05-15T11:28:50.014Z,11.10
2018-05-15T11:29:50.004Z,8.70
2018-05-15T11:30:49.990Z,10.60
2018-05-15T11:31:49.985Z,10.70
2018-05-15T11:32:49.972Z,11.80
2018-05-15T11:33:49.964Z,10.80
2018-05-15T11:34:49.965Z,10.50
2018-05-15T11:35:49.949Z,10.50
2018-05-15T11:36:49.947Z,8.20
2018-05-15T11:37:49.932Z,9.90
2018-05-15T11:38:49.926Z,9.80
2018-05-15T11:39:49.916Z,8.60
2018-05-15T11:40:49.908Z,11.30
2018-05-15T11:41:49.992Z,10.50
2018-05-15T11:42:49.893Z,11.30
2018-05-15T11:43:49.882Z,7.70
2018-05-15T11:44:49.868Z,9.00
2018-05-15T11:45:49.865Z,12.50
2018-05-15T11:46:49.854Z,8.20
2018-05-15T11:47:50.357Z,10.30
2018-05-15T11:48:50.809Z,9.40
2018-05-15T11:49:50.741Z,9.40
2018-05-15T11:50:50.891Z,8.80
2018-05-15T11:51:50.701Z,9.10
2018-05-15T11:52:50.425Z,7.30
2018-05-15T11:53:49.853Z,8.20
2018-05-15T11:54:49.788Z,10.00
2018-05-15T11:55:49.816Z,7.80
2018-05-15T11:56:49.773Z,7.80
2018-05-15T11:57:49.791Z,8.90
2018-05-15T11:58:49.757Z,13.10
2018-05-15T11:59:49.759Z,7.70
2018-05-15T12:00:49.740Z,10.80
2018-05-15T12:01:49.727Z,9.20
2018-05-15T12:02:49.795Z,10.40
2018-05-15T12:03:49.790Z,7.90
2018-05-15T12:04:49.702Z,9.20
2018-05-15T12:05:49.693Z,12.10
2018-05-15T12:06:49.688Z,8.70
2018-05-15T12:07:49.679Z,8.10
2018-05-15T12:08:49.672Z,9.10
2018-05-15T12:09:49.669Z,7.70
2018-05-15T12:10:49.656Z,6.60
2018-05-15T12:11:49.649Z,6.90
2018-05-15T12:12:49.760Z,5.90
2018-05-15T12:13:49.643Z,7.20
2018-05-15T12:14:49.623Z,5.40
2018-05-15T12:15:49.615Z,6.30
2018-05-15T12:16:49.612Z,5.60
2018-05-15T12:17:49.601Z,8.60
2018-05-15T12:18:49.601Z,8.60
2018-05-15T12:19:49.587Z,9.00
2018-05-15T12:20:49.588Z,7.40
2018-05-15T12:21:49.579Z,4.80
2018-05-15T12:22:49.563Z,5.90
2018-05-15T12:23:49.557Z,9.70
2018-05-15T12:24:49.550Z,5.40
2018-05-15T12:25:49.543Z,10.20
2018-05-15T12:26:49.537Z,15.10
2018-05-15T12:27:49.527Z,11.50
2018-05-15T12:28:49.527Z,9.50
2018-05-15T12:29:49.557Z,8.70
2018-05-15T12:30:49.507Z,9.30
2018-05-15T12:31:49.504Z,14.60
2018-05-15T12:32:49.495Z,8.00
2018-05-15T12:33:49.483Z,9.90
2018-05-15T12:34:49.479Z,11.10
2018-05-15T12:35:49.530Z,9.70
2018-05-15T12:36:49.463Z,22.20
2018-05-15T12:37:49.457Z,10.60
2018-05-15T12:38:49.459Z,9.90
2018-05-15T12:39:49.450Z,9.50
2018-05-15T12:40:49.437Z,9.90
2018-05-15T12:41:49.531Z,11.00
2018-05-15T12:42:49.424Z,7.60
2018-05-15T12:43:49.425Z,8.30
2018-05-15T12:44:49.411Z,8.30
2018-05-15T12:45:49.407Z,9.50
2018-05-15T12:46:49.494Z,9.00
2018-05-15T12:47:49.431Z,7.30
2018-05-15T12:48:49.452Z,8.80
2018-05-15T12:49:49.383Z,9.30
2018-05-15T12:50:49.372Z,12.50
2018-05-15T12:51:49.371Z,8.70
2018-05-15T12:52:49.362Z,6.90
2018-05-15T12:53:49.353Z,10.50
2018-05-15T12:54:49.348Z,9.90
2018-05-15T12:55:49.343Z,13.10
2018-05-15T12:56:49.336Z,9.50
2018-05-15T12:57:49.331Z,14.40
2018-05-15T12:58:49.330Z,9.10
2018-05-15T12:59:49.327Z,10.40
2018-05-15T13:00:49.315Z,9.40
2018-05-15T13:01:49.326Z,8.60
2018-05-15T13:02:49.305Z,11.20
2018-05-15T13:03:49.302Z,9.70
2018-05-15T13:04:49.296Z,11.60
2018-05-15T13:05:49.305Z,7.70
2018-05-15T13:06:49.282Z,9.80
2018-05-15T13:07:49.282Z,8.50
2018-05-15T13:08:49.272Z,10.10
2018-05-15T13:09:49.268Z,9.20
2018-05-15T13:10:49.262Z,8.10
2018-05-15T13:11:49.263Z,12.30
2018-05-15T13:12:49.252Z,10.30
2018-05-15T13:13:49.248Z,8.90
2018-05-15T13:14:49.250Z,9.20
2018-05-15T13:15:49.238Z,10.30
2018-05-15T13:16:49.234Z,9.80
2018-05-15T13:17:49.229Z,10.00
2018-05-15T13:18:49.227Z,8.90
2018-05-15T13:19:49.225Z,9.50
2018-05-15T13:20:49.216Z,9.60
2018-05-15T13:21:49.209Z,8.80
2018-05-15T13:22:49.208Z,8.80
2018-05-15T13:23:49.199Z,8.60
2018-05-15T13:24:49.210Z,9.40
2018-05-15T13:25:49.197Z,10.40
2018-05-15T13:26:49.192Z,8.60
2018-05-15T13:27:49.180Z,8.80
2018-05-15T13:28:49.183Z,9.90
2018-05-15T13:29:49.201Z,12.00
2018-05-15T13:30:49.171Z,13.70
2018-05-15T13:31:49.167Z,11.90
2018-05-15T13:32:49.163Z,9.30
2018-05-15T13:33:49.156Z,8.20
2018-05-15T13:34:49.150Z,10.80
2018-05-15T13:35:49.156Z,7.50
2018-05-15T13:36:49.142Z,8.50
2018-05-15T13:37:49.145Z,7.80
2018-05-15T13:38:49.136Z,7.10
2018-05-15T13:39:49.136Z,8.30
2018-05-15T13:40:49.128Z,7.90
2018-05-15T13:41:49.122Z,8.50
2018-05-15T13:42:49.120Z,6.50
2018-05-15T13:43:49.120Z,6.80
2018-05-15T13:44:49.112Z,6.30
2018-05-15T13:45:49.111Z,6.00
2018-05-15T13:46:49.103Z,7.10
2018-05-15T13:47:49.101Z,7.60
2018-05-15T13:48:49.100Z,7.50
2018-05-15T13:49:49.095Z,6.70
2018-05-15T13:50:49.099Z,6.80
2018-05-15T13:51:49.085Z,6.90
2018-05-15T13:52:49.082Z,6.80
2018-05-15T13:53:49.077Z,7.20
2018-05-15T13:54:49.075Z,7.10
2018-05-15T13:55:49.073Z,7.90
2018-05-15T13:56:49.070Z,6.90
2018-05-15T13:57:49.060Z,8.40
2018-05-15T13:58:49.059Z,9.40
2018-05-15T13:59:49.053Z,6.80
2018-05-15T14:00:49.052Z,8.80
2018-05-15T14:01:49.042Z,7.70
2018-05-15T14:02:49.047Z,7.20
2018-05-15T14:03:49.036Z,7.70
2018-05-15T14:04:49.038Z,8.10
2018-05-15T14:05:49.027Z,8.00
2018-05-15T14:06:49.023Z,6.70
2018-05-15T14:07:49.017Z,7.60
2018-05-15T14:08:49.013Z,8.00
2018-05-15T14:09:49.007Z,7.00
2018-05-15T14:10:49.006Z,8.00
2018-05-15T14:11:49.000Z,7.20
2018-05-15T14:12:48.997Z,7.70
2018-05-15T14:13:48.990Z,6.50
2018-05-15T14:14:48.985Z,7.00
2018-05-15T14:15:48.980Z,9.10
2018-05-15T14:16:48.974Z,6.20
2018-05-15T14:17:48.975Z,9.60
2018-05-15T14:18:48.966Z,6.50
2018-05-15T14:19:48.958Z,6.50
2018-05-15T14:20:48.951Z,6.90
2018-05-15T14:21:48.950Z,7.50
2018-05-15T14:22:48.947Z,10.30
2018-05-15T14:23:48.935Z,7.80
2018-05-15T14:24:48.944Z,9.10
2018-05-15T14:25:48.925Z,10.30
2018-05-15T14:26:48.918Z,10.00
2018-05-15T14:27:48.913Z,9.10
2018-05-15T14:28:48.911Z,8.90
2018-05-15T14:29:48.901Z,7.80
2018-05-15T14:30:48.903Z,7.30
2018-05-15T14:31:48.889Z,7.90
2018-05-15T14:32:48.890Z,7.60
2018-05-15T14:33:48.884Z,8.20
2018-05-15T14:34:48.873Z,7.00
2018-05-15T14:35:48.865Z,7.00
2018-05-15T14:36:48.864Z,6.40
2018-05-15T14:37:48.852Z,6.60
2018-05-15T14:38:48.845Z,7.60
2018-05-15T14:39:48.840Z,5.80
2018-05-15T14:40:48.843Z,5.90
2018-05-15T14:41:48.832Z,6.20
2018-05-15T14:42:48.819Z,5.80
2018-05-15T14:43:48.814Z,5.90
2018-05-15T14:44:48.805Z,5.20
2018-05-15T14:45:48.801Z,6.60
2018-05-15T14:46:48.796Z,6.40
2018-05-15T14:47:48.785Z,5.60
2018-05-15T14:48:48.784Z,5.10
2018-05-15T14:49:48.778Z,5.70
2018-05-15T14:50:48.837Z,4.00
2018-05-15T14:51:48.760Z,5.80
2018-05-15T14:52:48.751Z,6.10
2018-05-15T14:53:48.753Z,5.60
2018-05-15T14:54:48.739Z,4.70
2018-05-15T14:55:48.733Z,4.60
2018-05-15T14:56:48.727Z,5.90
2018-05-15T14:57:48.720Z,5.30
2018-05-15T14:58:48.709Z,5.90
2018-05-15T14:59:48.707Z,5.30
2018-05-15T15:00:48.694Z,5.90
2018-05-15T15:01:48.691Z,6.00
2018-05-15T15:02:48.687Z,6.60
2018-05-15T15:03:48.676Z,7.00
2018-05-15T15:04:48.666Z,7.10
2018-05-15T15:05:48.661Z,6.40